createdAt,value
2018-09-13T00:01:31.284Z,101702.49
2018-09-13T00:03:59.604Z,101711.95
2018-09-13T00:06:27.922Z,101707.14
2018-09-13T00:08:56.259Z,101701.72
2018-09-13T00:11:24.600Z,101707.87
2018-09-13T00:13:52.942Z,101702.13
2018-09-13T00:16:21.263Z,101695.27
2018-09-13T00:18:49.603Z,101697.20
2018-09-13T00:21:17.938Z,101695.93
2018-09-13T00:23:46.459Z,101695.55
2018-09-13T00:26:14.766Z,101695.31
2018-09-13T00:28:43.071Z,101705.61
2018-09-13T00:31:11.398Z,101700.34
2018-09-13T00:33:39.710Z,101702.57
2018-09-13T00:36:08.022Z,101709.02
2018-09-13T00:38:36.354Z,101716.78
2018-09-13T00:41:04.708Z,101717.55
2018-09-13T00:43:33.021Z,101717.27
2018-09-13T00:46:01.360Z,101711.61
2018-09-13T00:48:29.695Z,101708.95
2018-09-13T00:50:58.012Z,101704.66
2018-09-13T00:53:26.333Z,101708.24
2018-09-13T00:55:54.703Z,101704.66
2018-09-13T00:58:23.006Z,101709.13
2018-09-13T01:00:51.329Z,101707.86
2018-09-13T01:03:19.654Z,101707.62
2018-09-13T01:05:47.987Z,101714.87
2018-09-13T01:08:16.301Z,101722.86
2018-09-13T01:10:44.664Z,101719.72
2018-09-13T01:13:13.128Z,101721.42
2018-09-13T01:15:41.460Z,101721.27
2018-09-13T01:18:09.779Z,101712.02
2018-09-13T01:20:38.095Z,101714.88
2018-09-13T01:23:07.356Z,101716.86
2018-09-13T01:25:35.704Z,101718.80
2018-09-13T01:28:04.052Z,101718.70
2018-09-13T01:30:32.389Z,101714.49
2018-09-13T01:33:00.713Z,101715.52
2018-09-13T01:35:29.047Z,101717.17
2018-09-13T01:37:57.363Z,101714.80
2018-09-13T01:40:25.704Z,101720.21
2018-09-13T01:42:54.020Z,101718.80
2018-09-13T01:45:22.373Z,101727.55
2018-09-13T01:47:50.712Z,101737.03
2018-09-13T01:50:19.469Z,101734.83
2018-09-13T01:52:47.806Z,101732.49
2018-09-13T01:55:16.296Z,101730.27
2018-09-13T01:57:44.632Z,101729.63
2018-09-13T02:00:12.980Z,101724.84
2018-09-13T02:02:41.354Z,101722.44
2018-09-13T02:05:09.700Z,101729.03
2018-09-13T02:07:38.051Z,101730.86
2018-09-13T02:10:06.636Z,101726.47
2018-09-13T02:12:34.975Z,101727.82
2018-09-13T02:15:03.328Z,101728.69
2018-09-13T02:17:31.687Z,101734.59
2018-09-13T02:20:00.049Z,101735.85
2018-09-13T02:22:28.387Z,101732.13
2018-09-13T02:24:56.695Z,101733.09
2018-09-13T02:27:25.318Z,101730.44
2018-09-13T02:29:53.629Z,101730.62
2018-09-13T02:32:22.284Z,101729.09
2018-09-13T02:34:50.627Z,101716.90
2018-09-13T02:37:19.306Z,101709.83
2018-09-13T02:39:48.165Z,101703.60
2018-09-13T02:42:16.495Z,101701.95
2018-09-13T02:44:44.797Z,101699.15
2018-09-13T02:47:13.177Z,101693.59
2018-09-13T02:49:41.474Z,101704.95
2018-09-13T02:52:09.798Z,101717.86
2018-09-13T02:54:38.103Z,101719.70
2018-09-13T02:57:06.439Z,101712.35
2018-09-13T02:59:34.753Z,101717.71
2018-09-13T03:02:03.089Z,101722.40
2018-09-13T03:04:31.411Z,101724.87
2018-09-13T03:06:59.772Z,101725.41
2018-09-13T03:09:28.118Z,101721.77
2018-09-13T03:11:56.461Z,101717.53
2018-09-13T03:14:24.890Z,101723.36
2018-09-13T03:16:53.193Z,101720.66
2018-09-13T03:19:21.517Z,101721.91
2018-09-13T03:21:49.851Z,101723.51
2018-09-13T03:24:18.227Z,101715.69
2018-09-13T03:26:46.548Z,101705.34
2018-09-13T03:29:14.873Z,101708.52
2018-09-13T03:31:43.208Z,101709.09
2018-09-13T03:34:11.542Z,101708.13
2018-09-13T03:36:39.893Z,101699.83
2018-09-13T03:39:09.741Z,101700.39
2018-09-13T03:41:38.063Z,101690.73
2018-09-13T03:44:06.545Z,101694.11
2018-09-13T03:46:35.183Z,101691.30
2018-09-13T03:49:03.502Z,101688.64
2018-09-13T03:51:31.906Z,101690.24
2018-09-13T03:54:00.222Z,101689.61
2018-09-13T03:56:28.604Z,101689.21
2018-09-13T03:58:56.928Z,101688.64
2018-09-13T04:01:25.306Z,101695.41
2018-09-13T04:03:53.628Z,101691.34
2018-09-13T04:06:21.960Z,101686.30
2018-09-13T04:08:50.293Z,101686.41
2018-09-13T04:11:18.628Z,101690.13
2018-09-13T04:13:46.980Z,101685.12
2018-09-13T04:16:15.308Z,101684.46
2018-09-13T04:18:43.698Z,101687.00
2018-09-13T04:21:11.996Z,101688.36
2018-09-13T04:23:40.321Z,101697.57
2018-09-13T04:26:08.652Z,101699.31
2018-09-13T04:28:36.976Z,101692.30
2018-09-13T04:31:05.333Z,101693.17
2018-09-13T04:33:33.777Z,101704.08
2018-09-13T04:36:02.196Z,101701.03
2018-09-13T04:38:30.518Z,101697.06
2018-09-13T04:40:58.833Z,101698.55
2018-09-13T04:43:27.286Z,101702.97
2018-09-13T04:45:55.638Z,101705.40
2018-09-13T04:48:23.980Z,101698.92
2018-09-13T04:50:52.316Z,101693.65
2018-09-13T04:53:20.650Z,101693.85
2018-09-13T04:55:49.501Z,101698.30
2018-09-13T04:58:17.860Z,101697.52
2018-09-13T05:00:46.183Z,101699.96
2018-09-13T05:03:14.535Z,101696.41
2018-09-13T05:05:42.868Z,101689.00
2018-09-13T05:08:11.190Z,101688.17
2018-09-13T05:10:39.508Z,101692.66
2018-09-13T05:13:07.949Z,101699.91
2018-09-13T05:15:36.259Z,101699.77
2018-09-13T05:18:04.581Z,101701.30
2018-09-13T05:20:32.905Z,101714.42
2018-09-13T05:23:01.237Z,101711.58
2018-09-13T05:25:29.569Z,101715.37
2018-09-13T05:27:57.895Z,101716.38
2018-09-13T05:30:26.201Z,101710.02
2018-09-13T05:32:54.521Z,101712.67
2018-09-13T05:35:22.901Z,101711.63
2018-09-13T05:37:51.565Z,101709.80
2018-09-13T05:40:19.899Z,101709.28
2018-09-13T05:42:48.218Z,101703.83
2018-09-13T05:45:16.976Z,101694.98
2018-09-13T05:47:45.292Z,101687.09
2018-09-13T05:50:14.228Z,101692.02
2018-09-13T05:52:42.551Z,101697.95
2018-09-13T05:55:10.880Z,101691.06
2018-09-13T05:57:39.217Z,101690.54
2018-09-13T06:00:07.611Z,101698.64
2018-09-13T06:02:35.937Z,101706.27
2018-09-13T06:05:04.262Z,101715.34
2018-09-13T06:07:32.607Z,101713.77
2018-09-13T06:10:00.951Z,101724.45
2018-09-13T06:12:29.296Z,101726.80
2018-09-13T06:14:57.622Z,101727.55
2018-09-13T06:17:25.984Z,101744.94
2018-09-13T06:19:54.347Z,101755.66
2018-09-13T06:22:22.718Z,101733.64
2018-09-13T06:24:51.076Z,101722.18
2018-09-13T06:27:19.443Z,101710.11
2018-09-13T06:29:47.784Z,101711.11
2018-09-13T06:32:16.187Z,101714.33
2018-09-13T06:34:44.540Z,101711.20
2018-09-13T06:37:12.861Z,101707.27
2018-09-13T06:39:41.209Z,101706.23
2018-09-13T06:42:09.573Z,101712.98
2018-09-13T06:44:37.896Z,101732.16
2018-09-13T06:47:06.688Z,101740.92
2018-09-13T06:49:35.018Z,101744.98
2018-09-13T06:52:03.367Z,101741.80
2018-09-13T06:54:31.718Z,101752.66
2018-09-13T06:57:00.101Z,101740.22
2018-09-13T06:59:28.434Z,101743.72
2018-09-13T07:01:56.754Z,101749.42
2018-09-13T07:04:25.088Z,101745.98
2018-09-13T07:06:53.425Z,101752.52
2018-09-13T07:09:21.774Z,101740.14
2018-09-13T07:11:50.110Z,101737.33
2018-09-13T07:14:18.472Z,101737.11
2018-09-13T07:16:46.803Z,101743.17
2018-09-13T07:19:15.260Z,101745.22
2018-09-13T07:21:43.594Z,101750.97
2018-09-13T07:24:11.930Z,101752.37
2018-09-13T07:26:40.283Z,101751.84
2018-09-13T07:29:08.642Z,101750.02
2018-09-13T07:31:36.984Z,101748.16
2018-09-13T07:34:05.331Z,101745.36
2018-09-13T07:36:33.648Z,101746.55
2018-09-13T07:39:02.008Z,101750.50
2018-09-13T07:41:30.340Z,101749.02
2018-09-13T07:43:58.663Z,101750.38
2018-09-13T07:46:26.988Z,101750.08
2018-09-13T07:48:55.354Z,101742.26
2018-09-13T07:51:23.897Z,101734.06
2018-09-13T07:53:52.227Z,101736.45
2018-09-13T07:56:20.645Z,101738.59
2018-09-13T07:58:49.247Z,101745.62
2018-09-13T08:01:17.604Z,101760.27
2018-09-13T08:03:45.938Z,101760.87
2018-09-13T08:06:14.589Z,101760.61
2018-09-13T08:08:43.168Z,101766.06
2018-09-13T08:11:11.501Z,101757.52
2018-09-13T08:13:39.847Z,101753.71
2018-09-13T08:16:08.211Z,101742.38
2018-09-13T08:18:36.636Z,101745.87
2018-09-13T08:21:05.851Z,101736.05
2018-09-13T08:23:34.122Z,101745.20
2018-09-13T08:26:02.456Z,101745.97
2018-09-13T08:28:30.794Z,101747.21
2018-09-13T08:30:59.181Z,101742.84
2018-09-13T08:33:27.696Z,101738.03
2018-09-13T08:35:55.921Z,101749.13
2018-09-13T08:38:24.278Z,101754.79
2018-09-13T08:40:52.812Z,101758.84
2018-09-13T08:43:21.177Z,101762.42
2018-09-13T08:45:49.533Z,101743.73
2018-09-13T08:48:17.870Z,101731.50
2018-09-13T08:50:46.212Z,101732.25
2018-09-13T08:53:14.552Z,101729.20
2018-09-13T08:55:42.904Z,101743.84
2018-09-13T08:58:11.258Z,101749.59
2018-09-13T09:00:39.636Z,101749.84
2018-09-13T09:03:07.965Z,101750.81
2018-09-13T09:05:36.356Z,101740.66
2018-09-13T09:08:04.862Z,101733.27
2018-09-13T09:10:33.213Z,101734.35
2018-09-13T09:13:01.552Z,101738.80
2018-09-13T09:15:29.883Z,101740.88
2018-09-13T09:17:58.197Z,101741.45
2018-09-13T09:20:26.544Z,101741.40
2018-09-13T09:29:55.094Z,101762.99
2018-09-13T09:32:23.451Z,101758.87
2018-09-13T09:34:51.858Z,101753.58
2018-09-13T09:37:20.156Z,101745.44
2018-09-13T09:39:48.542Z,101744.51
2018-09-13T09:42:16.892Z,101736.95
2018-09-13T09:44:45.256Z,101733.23
2018-09-13T09:47:13.627Z,101735.24
2018-09-13T09:49:41.970Z,101741.70
2018-09-13T09:52:10.406Z,101742.64
2018-09-13T09:54:38.734Z,101746.17
2018-09-13T09:57:07.084Z,101744.53
2018-09-13T09:59:35.622Z,101739.80
2018-09-13T10:02:09.197Z,101738.94
2018-09-13T10:04:37.543Z,101729.31
2018-09-13T10:07:05.898Z,101735.84
2018-09-13T10:09:34.260Z,101728.84
2018-09-13T10:12:02.705Z,101728.45
2018-09-13T10:14:31.004Z,101731.88
2018-09-13T10:17:04.656Z,101722.41
2018-09-13T10:19:38.444Z,101712.69
2018-09-13T10:22:12.250Z,101711.24
2018-09-13T10:24:45.940Z,101708.78
2018-09-13T10:28:18.268Z,101702.48
2018-09-13T10:30:51.915Z,101709.20
2018-09-13T10:33:25.568Z,101711.52
2018-09-13T10:35:59.361Z,101715.67
2018-09-13T10:38:33.136Z,101713.44
2018-09-13T10:41:06.752Z,101711.09
2018-09-13T10:43:40.563Z,101706.52
2018-09-13T10:46:14.295Z,101695.34
2018-09-13T10:48:47.931Z,101708.51
2018-09-13T10:51:21.487Z,101701.34
2018-09-13T10:53:54.997Z,101705.14
2018-09-13T10:56:23.373Z,101699.90
2018-09-13T10:58:51.724Z,101709.38
2018-09-13T11:01:20.484Z,101698.38
2018-09-13T11:03:48.864Z,101696.31
2018-09-13T11:06:17.192Z,101693.30
2018-09-13T11:08:45.774Z,101693.30
2018-09-13T11:11:14.279Z,101689.39
2018-09-13T11:14:17.564Z,101692.41
2018-09-13T11:16:46.115Z,101688.89
2018-09-13T11:19:14.480Z,101683.94
2018-09-13T11:21:42.862Z,101676.00
2018-09-13T11:24:11.156Z,101672.94
2018-09-13T11:26:39.467Z,101675.88
2018-09-13T11:29:07.791Z,101677.16
2018-09-13T11:31:36.135Z,101677.87
2018-09-13T11:34:04.484Z,101679.30
2018-09-13T11:36:32.829Z,101679.58
2018-09-13T11:39:01.174Z,101685.41
2018-09-13T11:41:29.523Z,101689.15
2018-09-13T11:43:57.861Z,101695.11
2018-09-13T11:46:26.213Z,101695.52
2018-09-13T11:48:54.550Z,101691.29
2018-09-13T11:51:22.932Z,101687.36
2018-09-13T11:53:51.299Z,101688.89
2018-09-13T11:56:19.658Z,101683.92
2018-09-13T11:58:48.434Z,101681.96
2018-09-13T12:01:16.862Z,101686.90
2018-09-13T12:03:45.146Z,101681.90
2018-09-13T12:06:13.501Z,101681.92
2018-09-13T12:08:41.839Z,101676.80
2018-09-13T12:11:10.221Z,101678.95
2018-09-13T12:13:38.550Z,101681.16
2018-09-13T12:16:06.956Z,101676.02
2018-09-13T12:18:36.436Z,101666.70
2018-09-13T12:21:06.157Z,101668.80
2018-09-13T12:23:35.801Z,101669.41
2018-09-13T12:26:04.158Z,101666.86
2018-09-13T12:28:32.701Z,101667.25
2018-09-13T12:31:01.035Z,101671.51
2018-09-13T12:33:29.392Z,101662.28
2018-09-13T12:35:58.083Z,101661.34
2018-09-13T12:38:26.445Z,101661.21
2018-09-13T12:40:54.787Z,101653.02
2018-09-13T12:43:23.102Z,101656.08
2018-09-13T12:45:51.426Z,101648.10
2018-09-13T12:48:19.758Z,101657.43
2018-09-13T12:50:48.081Z,101653.14
2018-09-13T12:53:16.399Z,101649.39
2018-09-13T12:55:50.109Z,101642.81
2018-09-13T12:58:18.440Z,101634.16
2018-09-13T13:00:46.769Z,101629.73
2018-09-13T13:03:15.102Z,101620.23
2018-09-13T13:05:43.431Z,101622.17
2018-09-13T13:08:11.751Z,101615.38
2018-09-13T13:10:40.063Z,101616.39
2018-09-13T13:13:08.380Z,101612.33
2018-09-13T13:15:36.729Z,101610.05
2018-09-13T13:18:05.306Z,101608.86
2018-09-13T13:20:33.648Z,101609.41
2018-09-13T13:23:01.966Z,101606.91
2018-09-13T13:25:30.309Z,101606.57
2018-09-13T13:27:58.651Z,101608.06
2018-09-13T13:30:27.115Z,101602.63
2018-09-13T13:32:55.447Z,101605.07
2018-09-13T13:35:23.788Z,101600.72
2018-09-13T13:37:52.115Z,101604.20
2018-09-13T13:40:20.728Z,101596.99
2018-09-13T13:42:49.060Z,101599.24
2018-09-13T13:45:17.399Z,101597.75
2018-09-13T13:47:45.786Z,101598.35
2018-09-13T13:50:14.275Z,101599.13
2018-09-13T13:52:42.839Z,101593.05
2018-09-13T13:55:11.170Z,101595.94
2018-09-13T13:57:39.496Z,101589.36
2018-09-13T14:00:08.024Z,101588.62
2018-09-13T14:02:36.392Z,101589.81
2018-09-13T14:05:04.752Z,101591.55
2018-09-13T14:07:33.097Z,101582.81
2018-09-13T14:10:01.441Z,101588.89
2018-09-13T14:12:29.804Z,101585.14
2018-09-13T14:14:58.128Z,101586.39
2018-09-13T14:17:26.538Z,101589.10
2018-09-13T14:19:54.889Z,101587.15
2018-09-13T14:22:23.232Z,101591.43
2018-09-13T14:24:51.616Z,101586.01
2018-09-13T14:27:19.960Z,101585.42
2018-09-13T14:29:48.357Z,101583.70
2018-09-13T14:32:16.639Z,101581.96
2018-09-13T14:34:45.990Z,101576.19
2018-09-13T14:37:14.361Z,101577.41
2018-09-13T14:39:42.667Z,101582.83
2018-09-13T14:42:11.017Z,101579.95
2018-09-13T14:44:39.350Z,101581.52
2018-09-13T14:47:07.704Z,101581.86
2018-09-13T14:49:36.082Z,101576.19
2018-09-13T14:52:04.432Z,101579.70
2018-09-13T14:54:32.777Z,101578.52
2018-09-13T14:57:01.101Z,101573.96
2018-09-13T14:59:29.467Z,101565.55
2018-09-13T15:01:57.805Z,101562.52
2018-09-13T15:04:26.252Z,101561.20
2018-09-13T15:06:54.667Z,101569.70
2018-09-13T15:09:22.980Z,101564.21
2018-09-13T15:11:51.308Z,101563.67
2018-09-13T15:14:19.644Z,101559.02
2018-09-13T15:16:47.961Z,101559.98
2018-09-13T15:19:16.286Z,101563.00
2018-09-13T15:21:45.751Z,101555.46
2018-09-13T15:24:14.122Z,101562.85
2018-09-13T15:26:42.500Z,101558.50
2018-09-13T15:29:10.867Z,101553.25
2018-09-13T15:31:39.217Z,101557.10
2018-09-13T15:34:07.664Z,101561.00
2018-09-13T15:36:35.975Z,101558.67
2018-09-13T15:39:06.499Z,101554.73
2018-09-13T15:41:34.852Z,101561.38
2018-09-13T15:44:03.192Z,101560.83
2018-09-13T15:46:31.540Z,101559.55
2018-09-13T15:48:59.871Z,101560.52
2018-09-13T15:51:28.195Z,101553.30
2018-09-13T15:53:56.563Z,101565.33
2018-09-13T15:56:24.981Z,101563.48
2018-09-13T15:58:53.356Z,101566.14
2018-09-13T16:01:21.740Z,101569.00
2018-09-13T16:03:50.094Z,101564.84
2018-09-13T16:06:18.442Z,101564.14
2018-09-13T16:08:46.833Z,101567.17
2018-09-13T16:11:15.219Z,101569.20
2018-09-13T16:13:43.564Z,101567.56
2018-09-13T16:16:11.880Z,101567.27
2018-09-13T16:18:40.264Z,101570.30
2018-09-13T16:21:08.900Z,101559.88
2018-09-13T16:23:37.352Z,101560.09
2018-09-13T16:26:05.676Z,101558.83
2018-09-13T16:28:34.113Z,101565.78
2018-09-13T16:31:02.439Z,101562.97
2018-09-13T16:33:30.784Z,101555.92
2018-09-13T16:36:00.632Z,101560.36
2018-09-13T16:38:34.230Z,101559.08
2018-09-13T16:41:09.104Z,101563.70
2018-09-13T16:43:42.791Z,101557.02
2018-09-13T16:46:17.704Z,101556.53
2018-09-13T16:48:46.068Z,101560.77
2018-09-13T16:51:14.389Z,101556.39
2018-09-13T16:53:42.715Z,101553.62
2018-09-13T16:56:11.052Z,101553.62
2018-09-13T16:58:39.385Z,101556.72
2018-09-13T17:01:07.764Z,101557.68
2018-09-13T17:03:36.096Z,101564.60
2018-09-13T17:06:04.402Z,101558.70
2018-09-13T17:08:32.732Z,101560.64
2018-09-13T17:11:01.050Z,101561.75
2018-09-13T17:13:29.415Z,101560.30
2018-09-13T17:15:57.740Z,101561.81
2018-09-13T17:18:26.069Z,101561.75
2018-09-13T17:20:54.451Z,101567.80
2018-09-13T17:23:22.796Z,101562.92
2018-09-13T17:25:51.196Z,101567.95
2018-09-13T17:28:19.527Z,101567.86
2018-09-13T17:30:47.909Z,101566.90
2018-09-13T17:33:16.249Z,101561.97
2018-09-13T17:35:44.596Z,101567.86
2018-09-13T17:38:13.014Z,101566.66
2018-09-13T17:40:41.586Z,101564.61
2018-09-13T17:43:09.924Z,101563.80
2018-09-13T17:45:38.290Z,101575.64
2018-09-13T17:48:06.653Z,101564.28
2018-09-13T17:50:34.977Z,101560.55
2018-09-13T17:53:03.307Z,101563.17
2018-09-13T17:55:33.382Z,101566.59
2018-09-13T17:58:03.094Z,101567.70
2018-09-13T18:00:31.500Z,101572.16
2018-09-13T18:02:59.852Z,101567.28
2018-09-13T18:05:28.200Z,101571.97
2018-09-13T18:07:56.525Z,101577.17
2018-09-13T18:10:24.872Z,101577.80
2018-09-13T18:12:53.252Z,101574.86
2018-09-13T18:15:21.597Z,101584.00
2018-09-13T18:17:49.964Z,101585.05
2018-09-13T18:20:18.391Z,101591.14
2018-09-13T18:22:46.755Z,101589.34
2018-09-13T18:25:15.148Z,101588.99
2018-09-13T18:27:43.548Z,101583.14
2018-09-13T18:30:11.872Z,101591.36
2018-09-13T18:32:40.221Z,101590.19
2018-09-13T18:35:08.548Z,101587.52
2018-09-13T18:37:36.993Z,101591.19
2018-09-13T18:40:05.509Z,101597.55
2018-09-13T18:42:33.842Z,101592.39
2018-09-13T18:45:02.227Z,101593.99
2018-09-13T18:47:30.590Z,101589.52
2018-09-13T18:49:58.984Z,101590.33
2018-09-13T18:52:27.316Z,101589.48
2018-09-13T18:54:55.698Z,101593.97
2018-09-13T18:57:24.089Z,101588.94
2018-09-13T18:59:52.427Z,101588.82
2018-09-13T19:02:20.777Z,101588.59
2018-09-13T19:04:49.144Z,101586.91
2018-09-13T19:07:17.604Z,101590.81
2018-09-13T19:09:45.908Z,101589.97
2018-09-13T19:12:14.264Z,101590.54
2018-09-13T19:14:42.613Z,101595.87
2018-09-13T19:17:11.025Z,101594.53
2018-09-13T19:19:39.295Z,101594.47
2018-09-13T19:22:07.683Z,101597.09
2018-09-13T19:24:35.996Z,101597.62
2018-09-13T19:27:04.334Z,101597.23
2018-09-13T19:29:32.714Z,101595.34
2018-09-13T19:32:01.087Z,101597.57
2018-09-13T19:34:29.429Z,101597.46
2018-09-13T19:36:57.758Z,101595.09
2018-09-13T19:39:26.134Z,101599.80
2018-09-13T19:41:54.474Z,101603.28
2018-09-13T19:44:22.853Z,101596.98
2018-09-13T19:46:51.176Z,101600.98
2018-09-13T19:49:19.538Z,101606.64
2018-09-13T19:51:48.034Z,101601.42
2018-09-13T19:54:16.562Z,101607.93
2018-09-13T19:56:44.913Z,101602.52
2018-09-13T19:59:13.327Z,101598.19
2018-09-13T20:01:42.430Z,101599.94
2018-09-13T20:04:10.979Z,101597.32
2018-09-13T20:06:39.443Z,101594.13
2018-09-13T20:09:09.766Z,101595.94
2018-09-13T20:11:38.147Z,101591.46
2018-09-13T20:14:06.615Z,101593.13
2018-09-13T20:16:34.964Z,101595.13
2018-09-13T20:19:03.341Z,101591.44
2018-09-13T20:21:31.673Z,101587.72
2018-09-13T20:24:00.255Z,101594.98
2018-09-13T20:26:28.601Z,101593.30
2018-09-13T20:28:56.960Z,101593.04
2018-09-13T20:31:25.666Z,101599.56
2018-09-13T20:33:54.017Z,101602.70
2018-09-13T20:36:22.356Z,101604.92
2018-09-13T20:38:50.780Z,101602.02
2018-09-13T20:41:19.101Z,101601.34
2018-09-13T20:43:47.437Z,101599.56
2018-09-13T20:46:15.770Z,101600.39
2018-09-13T20:48:44.345Z,101597.04
2018-09-13T20:51:12.632Z,101601.01
2018-09-13T20:53:41.000Z,101598.70
2018-09-13T20:56:09.356Z,101591.91
2018-09-13T20:58:37.681Z,101594.56
2018-09-13T21:01:06.015Z,101603.23
2018-09-13T21:03:34.391Z,101599.03
2018-09-13T21:06:02.736Z,101604.30
2018-09-13T21:08:31.037Z,101599.82
2018-09-13T21:10:59.364Z,101599.15
2018-09-13T21:13:27.850Z,101605.25
2018-09-13T21:15:56.185Z,101604.55
2018-09-13T21:18:24.912Z,101613.31
2018-09-13T21:20:53.334Z,101607.84
2018-09-13T21:23:21.647Z,101607.14
2018-09-13T21:25:50.002Z,101605.41
2018-09-13T21:28:18.366Z,101606.89
2018-09-13T21:30:46.833Z,101604.19
2018-09-13T21:33:15.376Z,101606.50
2018-09-13T21:35:44.122Z,101610.83
2018-09-13T21:38:12.541Z,101612.58
2018-09-13T21:40:40.917Z,101602.02
2018-09-13T21:43:09.236Z,101608.77
2018-09-13T21:45:37.626Z,101610.95
2018-09-13T21:48:06.277Z,101610.80
2018-09-13T21:50:34.673Z,101616.35
2018-09-13T21:53:03.019Z,101618.41
2018-09-13T21:55:31.377Z,101615.95
2018-09-13T21:57:59.740Z,101621.75
2018-09-13T22:00:28.109Z,101613.90
2018-09-13T22:02:57.559Z,101616.03
2018-09-13T22:05:25.950Z,101625.36
2018-09-13T22:07:54.330Z,101622.61
2018-09-13T22:10:22.714Z,101622.66
2018-09-13T22:12:51.098Z,101619.84
2018-09-13T22:15:19.615Z,101623.61
2018-09-13T22:17:47.952Z,101625.70
2018-09-13T22:20:16.332Z,101627.36
2018-09-13T22:22:44.828Z,101629.98
2018-09-13T22:25:13.259Z,101626.15
2018-09-13T22:27:41.660Z,101627.10
2018-09-13T22:30:10.049Z,101633.19
2018-09-13T22:32:38.400Z,101627.78
2018-09-13T22:35:06.774Z,101626.26
2018-09-13T22:37:36.104Z,101624.45
2018-09-13T22:40:04.629Z,101627.47
2018-09-13T22:42:33.164Z,101629.21
2018-09-13T22:45:02.162Z,101627.47
2018-09-13T22:47:31.026Z,101628.32
2018-09-13T22:49:59.381Z,101629.21
2018-09-13T22:52:27.910Z,101635.47
2018-09-13T22:54:56.237Z,101629.30
2018-09-13T22:57:24.980Z,101633.83
2018-09-13T22:59:53.450Z,101634.80
2018-09-13T23:02:21.780Z,101637.07
2018-09-13T23:04:50.118Z,101638.03
2018-09-13T23:07:18.472Z,101636.63
2018-09-13T23:09:46.979Z,101633.49
2018-09-13T23:12:15.336Z,101627.61
2018-09-13T23:14:43.676Z,101631.02
2018-09-13T23:17:12.037Z,101632.88
2018-09-13T23:19:40.426Z,101629.39
2018-09-13T23:22:10.759Z,101628.42
2018-09-13T23:24:39.129Z,101631.13
2018-09-13T23:27:09.216Z,101635.47
2018-09-13T23:29:37.798Z,101630.17
2018-09-13T23:32:06.360Z,101630.55
2018-09-13T23:34:34.696Z,101631.67
2018-09-13T23:37:03.042Z,101625.14
2018-09-13T23:39:31.601Z,101631.13
2018-09-13T23:41:59.713Z,101628.82
2018-09-13T23:44:28.052Z,101628.82
2018-09-13T23:46:56.389Z,101631.13
2018-09-13T23:49:24.720Z,101624.91
2018-09-13T23:51:53.045Z,101625.39
2018-09-13T23:54:21.377Z,101629.44
2018-09-13T23:56:49.769Z,101626.73
2018-09-13T23:59:18.149Z,101623.16
